Time,TemperatureF,DewpointF,PressureIn,WindDirection,WindDirectionDegrees,WindSpeedMPH,WindSpeedGustMPH,Humidity,HourlyPrecipIn,Conditions,Clouds,dailyrainin,SoftwareType,DateUTC
2013-12-13 00:02:00,12.0,5.0,-100.00,ENE,70,1.0,2.0,73,-99.99,,,-99.99,,2013-12-13 06:02:00,
2013-12-13 00:11:00,12.0,5.0,-100.00,NE,55,2.0,4.0,73,-99.99,,,-99.99,,2013-12-13 06:11:00,
2013-12-13 00:43:00,12.0,5.0,-100.00,NE,55,2.0,4.0,73,-99.99,,,-99.99,,2013-12-13 06:43:00,
2013-12-13 00:52:00,12.0,5.0,-100.00,NE,55,2.0,4.0,73,-99.99,,,-99.99,,2013-12-13 06:52:00,
2013-12-13 01:02:00,12.0,5.0,-100.00,NE,55,2.0,4.0,73,-99.99,,,-99.99,,2013-12-13 07:02:00,
2013-12-13 01:42:00,12.0,6.0,-100.00,NE,45,2.0,7.0,76,-99.99,,,-99.99,,2013-12-13 07:42:00,
2013-12-13 01:52:00,12.0,6.0,-100.00,NE,45,2.0,7.0,76,-99.99,,,-99.99,,2013-12-13 07:52:00,
2013-12-13 02:02:00,12.0,6.0,-100.00,NE,45,2.0,7.0,76,-99.99,,,-99.99,,2013-12-13 08:02:00,
2013-12-13 02:11:00,11.0,7.0,-100.00,NE,45,2.0,6.0,81,-99.99,,,-99.99,,2013-12-13 08:11:00,
2013-12-13 02:42:00,11.0,7.0,-100.00,NE,45,2.0,6.0,81,-99.99,,,-99.99,,2013-12-13 08:42:00,
2013-12-13 02:52:00,11.0,7.0,-100.00,NE,45,2.0,6.0,81,-99.99,,,-99.99,,2013-12-13 08:52:00,
2013-12-13 03:02:00,11.0,7.0,-100.00,NE,45,2.0,6.0,81,-99.99,,,-99.99,,2013-12-13 09:02:00,
2013-12-13 04:43:00,10.0,6.0,-100.00,NNE,30,6.0,12.0,82,-99.99,,,-99.99,,2013-12-13 10:43:00,
2013-12-13 04:53:00,10.0,6.0,-100.00,NNE,30,6.0,12.0,82,-99.99,,,-99.99,,2013-12-13 10:53:00,
2013-12-13 05:02:00,10.0,6.0,-100.00,NNE,30,6.0,12.0,82,-99.99,,,-99.99,,2013-12-13 11:02:00,
2013-12-13 05:10:00,9.0,4.0,-100.00,NE,35,7.0,15.0,81,-99.99,,,-99.99,,2013-12-13 11:10:00,
2013-12-13 05:12:00,10.0,6.0,-100.00,NNE,30,6.0,12.0,82,-99.99,,,-99.99,,2013-12-13 11:12:00,
2013-12-13 05:43:00,9.0,4.0,-100.00,NE,35,7.0,15.0,81,-99.99,,,-99.99,,2013-12-13 11:43:00,
2013-12-13 05:53:00,9.0,4.0,-100.00,NE,35,7.0,15.0,81,-99.99,,,-99.99,,2013-12-13 11:53:00,
2013-12-13 06:02:00,9.0,4.0,-100.00,NE,35,7.0,15.0,81,-99.99,,,-99.99,,2013-12-13 12:02:00,
2013-12-13 06:10:00,8.0,2.0,-100.00,NE,40,0.0,0.0,78,-99.99,,,-99.99,,2013-12-13 12:10:00,
2013-12-13 06:42:00,8.0,2.0,-100.00,NE,40,0.0,0.0,78,-99.99,,,-99.99,,2013-12-13 12:42:00,
2013-12-13 06:53:00,8.0,2.0,-100.00,NE,40,0.0,0.0,78,-99.99,,,-99.99,,2013-12-13 12:53:00,
2013-12-13 07:02:00,8.0,2.0,-100.00,NE,40,0.0,0.0,78,-99.99,,,-99.99,,2013-12-13 13:02:00,
2013-12-13 07:42:00,8.0,2.0,-100.00,NE,35,0.0,0.0,78,-99.99,,,-99.99,,2013-12-13 13:42:00,
2013-12-13 07:52:00,8.0,2.0,-100.00,NE,35,0.0,0.0,78,-99.99,,,-99.99,,2013-12-13 13:52:00,
2013-12-13 08:02:00,8.0,2.0,-100.00,NE,35,0.0,0.0,78,-99.99,,,-99.99,,2013-12-13 14:02:00,
2013-12-13 08:10:00,7.0,1.0,-100.00,NE,50,0.0,0.0,77,-99.99,,,-99.99,,2013-12-13 14:10:00,
2013-12-13 08:11:00,8.0,2.0,-100.00,NE,35,0.0,0.0,78,-99.99,,,-99.99,,2013-12-13 14:11:00,
2013-12-13 08:43:00,7.0,1.0,-100.00,NE,50,0.0,0.0,77,-99.99,,,-99.99,,2013-12-13 14:43:00,
2013-12-13 08:53:00,7.0,1.0,-100.00,NE,50,0.0,0.0,77,-99.99,,,-99.99,,2013-12-13 14:53:00,
2013-12-13 09:02:00,7.0,1.0,-100.00,NE,50,0.0,0.0,77,-99.99,,,-99.99,,2013-12-13 15:02:00,
2013-12-13 09:11:00,7.0,0.0,-100.00,ENE,60,0.0,0.0,75,-99.99,,,-99.99,,2013-12-13 15:11:00,
2013-12-13 09:44:00,7.0,0.0,-100.00,ENE,60,0.0,0.0,75,-99.99,,,-99.99,,2013-12-13 15:44:00,
2013-12-13 09:54:00,7.0,0.0,-100.00,ENE,60,0.0,0.0,75,-99.99,,,-99.99,,2013-12-13 15:54:00,
2013-12-13 10:03:00,7.0,0.0,-100.00,ENE,60,0.0,0.0,75,-99.99,,,-99.99,,2013-12-13 16:03:00,
2013-12-13 10:11:00,8.0,1.0,-100.00,NNE,25,0.0,0.0,74,-99.99,,,-99.99,,2013-12-13 16:11:00,
2013-12-13 10:43:00,8.0,1.0,-100.00,NNE,25,0.0,0.0,74,-99.99,,,-99.99,,2013-12-13 16:43:00,
2013-12-13 10:53:00,8.0,1.0,-100.00,NNE,25,0.0,0.0,74,-99.99,,,-99.99,,2013-12-13 16:53:00,
2013-12-13 11:02:00,8.0,1.0,-100.00,NNE,25,0.0,0.0,74,-99.99,,,-99.99,,2013-12-13 17:02:00,
2013-12-13 11:11:00,8.0,1.0,-100.00,NNE,30,0.0,0.0,71,-99.99,,,-99.99,,2013-12-13 17:11:00,
2013-12-13 11:43:00,8.0,1.0,-100.00,NNE,30,0.0,0.0,71,-99.99,,,-99.99,,2013-12-13 17:43:00,
2013-12-13 11:52:00,8.0,1.0,-100.00,NNE,30,0.0,0.0,71,-99.99,,,-99.99,,2013-12-13 17:52:00,
2013-12-13 12:02:00,8.0,1.0,-100.00,NNE,30,0.0,0.0,71,-99.99,,,-99.99,,2013-12-13 18:02:00,
2013-12-13 12:10:00,9.0,1.0,-100.00,NE,35,0.0,0.0,70,-99.99,,,-99.99,,2013-12-13 18:10:00,
2013-12-13 12:42:00,9.0,1.0,-100.00,NE,35,0.0,0.0,70,-99.99,,,-99.99,,2013-12-13 18:42:00,
2013-12-13 12:52:00,9.0,1.0,-100.00,NE,35,0.0,0.0,70,-99.99,,,-99.99,,2013-12-13 18:52:00,
2013-12-13 13:02:00,9.0,1.0,-100.00,NE,35,0.0,0.0,70,-99.99,,,-99.99,,2013-12-13 19:02:00,
2013-12-13 13:10:00,9.0,1.0,-100.00,ENE,65,7.0,14.0,69,-99.99,,,-99.99,,2013-12-13 19:10:00,
2013-12-13 13:42:00,9.0,1.0,-100.00,ENE,65,7.0,14.0,69,-99.99,,,-99.99,,2013-12-13 19:42:00,
2013-12-13 13:52:00,9.0,1.0,-100.00,ENE,65,7.0,14.0,69,-99.99,,,-99.99,,2013-12-13 19:52:00,
2013-12-13 14:02:00,9.0,1.0,-100.00,ENE,65,7.0,14.0,69,-99.99,,,-99.99,,2013-12-13 20:02:00,
2013-12-13 14:11:00,10.0,1.0,-100.00,NE,55,0.0,0.0,68,-99.99,,,-99.99,,2013-12-13 20:11:00,
2013-12-13 14:42:00,10.0,1.0,-100.00,NE,55,0.0,0.0,68,-99.99,,,-99.99,,2013-12-13 20:42:00,
2013-12-13 14:53:00,10.0,1.0,-100.00,NE,55,0.0,0.0,68,-99.99,,,-99.99,,2013-12-13 20:53:00,
2013-12-13 15:02:00,10.0,1.0,-100.00,NE,55,0.0,0.0,68,-99.99,,,-99.99,,2013-12-13 21:02:00,
2013-12-13 16:10:00,10.0,1.0,-100.00,NE,55,0.0,0.0,67,-99.99,,,-99.99,,2013-12-13 22:10:00,
2013-12-13 16:42:00,10.0,1.0,-100.00,NE,55,0.0,0.0,67,-99.99,,,-99.99,,2013-12-13 22:42:00,
2013-12-13 16:53:00,10.0,1.0,-100.00,NE,55,0.0,0.0,67,-99.99,,,-99.99,,2013-12-13 22:53:00,
2013-12-13 17:03:00,10.0,1.0,-100.00,NE,55,0.0,0.0,67,-99.99,,,-99.99,,2013-12-13 23:03:00,
2013-12-13 19:11:00,6.0,0.0,-100.00,NE,45,0.0,0.0,73,-99.99,,,-99.99,,2013-12-14 01:11:00,
2013-12-13 19:42:00,6.0,0.0,-100.00,NE,45,0.0,0.0,73,-99.99,,,-99.99,,2013-12-14 01:42:00,
2013-12-13 19:52:00,6.0,0.0,-100.00,NE,45,0.0,0.0,73,-99.99,,,-99.99,,2013-12-14 01:52:00,
2013-12-13 20:01:00,6.0,0.0,-100.00,NE,45,0.0,0.0,73,-99.99,,,-99.99,,2013-12-14 02:01:00,
2013-12-13 20:10:00,7.0,0.0,-100.00,NE,45,0.0,0.0,74,-99.99,,,-99.99,,2013-12-14 02:10:00,
2013-12-13 20:42:00,7.0,0.0,-100.00,NE,45,0.0,0.0,74,-99.99,,,-99.99,,2013-12-14 02:42:00,
2013-12-13 20:52:00,7.0,0.0,-100.00,NE,45,0.0,0.0,74,-99.99,,,-99.99,,2013-12-14 02:52:00,
2013-12-13 21:02:00,7.0,0.0,-100.00,NE,45,0.0,0.0,74,-99.99,,,-99.99,,2013-12-14 03:02:00,
2013-12-13 21:11:00,7.0,0.0,-100.00,NNE,30,0.0,0.0,75,-99.99,,,-99.99,,2013-12-14 03:11:00,
2013-12-13 21:43:00,7.0,0.0,-100.00,NNE,30,0.0,0.0,75,-99.99,,,-99.99,,2013-12-14 03:43:00,
2013-12-13 21:54:00,7.0,0.0,-100.00,NNE,30,0.0,0.0,75,-99.99,,,-99.99,,2013-12-14 03:54:00,
2013-12-13 22:03:00,7.0,0.0,-100.00,NNE,30,0.0,0.0,75,-99.99,,,-99.99,,2013-12-14 04:03:00,
2013-12-13 22:10:00,8.0,1.0,-100.00,NE,50,0.0,0.0,75,-99.99,,,-99.99,,2013-12-14 04:10:00,
2013-12-13 22:43:00,8.0,1.0,-100.00,NE,50,0.0,0.0,75,-99.99,,,-99.99,,2013-12-14 04:43:00,
2013-12-13 22:53:00,8.0,1.0,-100.00,NE,50,0.0,0.0,75,-99.99,,,-99.99,,2013-12-14 04:53:00,
2013-12-13 23:03:00,8.0,1.0,-100.00,NE,50,0.0,0.0,75,-99.99,,,-99.99,,2013-12-14 05:03:00,
2013-12-13 23:10:00,8.0,1.0,-100.00,NNE,30,0.0,0.0,73,-99.99,,,-99.99,,2013-12-14 05:10:00,
2013-12-13 23:42:00,8.0,1.0,-100.00,NNE,30,0.0,0.0,73,-99.99,,,-99.99,,2013-12-14 05:42:00,
2013-12-13 23:53:00,8.0,1.0,-100.00,NNE,30,0.0,0.0,73,-99.99,,,-99.99,,2013-12-14 05:53:00,